Time;durP1;ratioP1;P1;durP2;ratioP2;P2;SDS_P1;SDS_P2;PMS_P1;PMS_P2;Temp;Humidity;BMP_temperature;BMP_pressure;BME280_temperature;BME280_humidity;BME280_pressure;Samples;Min_cycle;Max_cycle;Signal;HPM_P1;HPM_P2
2022/12/07 00:00:18;;;;;;;606.20;572.43;;;4.60;99.90;;;;;;5037745;28;20455;-81
2022/12/07 00:02:45;;;;;;;629.77;592.20;;;4.50;99.90;;;;;;5038655;28;20452;-82
2022/12/07 00:05:12;;;;;;;647.10;608.53;;;4.50;99.90;;;;;;5038016;28;20452;-82
2022/12/07 00:07:40;;;;;;;651.20;611.30;;;4.50;99.90;;;;;;5038887;28;20448;-82
2022/12/07 00:10:07;;;;;;;620.50;584.47;;;4.60;99.90;;;;;;5038588;28;20449;-82
2022/12/07 00:12:34;;;;;;;602.47;565.93;;;4.60;99.90;;;;;;5037903;28;20559;-82
2022/12/07 00:15:01;;;;;;;594.47;560.13;;;4.70;99.90;;;;;;5038009;28;20452;-83
2022/12/07 00:17:28;;;;;;;592.30;557.87;;;4.70;99.90;;;;;;5038436;28;20497;-82
2022/12/07 00:19:54;;;;;;;579.57;546.40;;;4.70;99.90;;;;;;5038612;28;20444;-83
2022/12/07 00:22:21;;;;;;;565.77;534.67;;;4.70;99.90;;;;;;5038651;28;20491;-81
2022/12/07 00:24:49;;;;;;;560.30;531.07;;;4.70;99.90;;;;;;5041974;28;20452;-82
2022/12/07 00:27:16;;;;;;;596.93;563.13;;;4.60;99.90;;;;;;5041802;28;20452;-82
2022/12/07 00:29:42;;;;;;;616.17;580.30;;;4.60;99.90;;;;;;5041232;28;20455;-82
2022/12/07 00:32:09;;;;;;;612.70;576.63;;;4.60;99.90;;;;;;5041370;28;20478;-83
2022/12/07 00:34:36;;;;;;;613.60;576.70;;;4.60;99.90;;;;;;5041556;28;20475;-82
2022/12/07 00:37:03;;;;;;;617.33;580.27;;;4.60;99.90;;;;;;5041403;28;20455;-80
2022/12/07 00:39:29;;;;;;;622.60;586.23;;;4.50;99.90;;;;;;5040519;28;20452;-83
2022/12/07 00:41:57;;;;;;;614.27;579.37;;;4.50;99.90;;;;;;5041202;28;20468;-81
2022/12/07 00:44:24;;;;;;;608.10;572.90;;;4.50;99.90;;;;;;5041872;28;20467;-82
2022/12/07 00:46:51;;;;;;;598.70;563.43;;;4.60;99.90;;;;;;5041768;28;20452;-82
2022/12/07 00:49:18;;;;;;;589.93;556.13;;;4.70;99.90;;;;;;5041473;28;20452;-82
2022/12/07 00:51:44;;;;;;;584.30;550.10;;;4.70;99.90;;;;;;5040949;28;20465;-82
2022/12/07 00:54:12;;;;;;;551.97;521.07;;;4.80;99.90;;;;;;5041923;28;20458;-82
2022/12/07 00:56:38;;;;;;;551.27;520.77;;;4.70;99.90;;;;;;5040714;28;20459;-83
2022/12/07 00:59:07;;;;;;;563.17;532.07;;;4.90;99.90;;;;;;5041178;28;20464;-82
2022/12/07 01:01:36;;;;;;;558.27;526.83;;;4.80;99.90;;;;;;5041184;28;20472;-83
2022/12/07 01:04:03;;;;;;;565.20;532.50;;;4.80;99.90;;;;;;5041260;28;20456;-82
2022/12/07 01:06:31;;;;;;;557.77;524.37;;;4.90;99.90;;;;;;5041206;28;20459;-82
2022/12/07 01:08:58;;;;;;;551.07;520.17;;;4.90;99.90;;;;;;5041330;28;20455;-83
2022/12/07 01:11:26;;;;;;;558.10;525.43;;;4.90;99.90;;;;;;5040600;28;20502;-82
2022/12/07 01:13:55;;;;;;;558.10;526.20;;;4.90;99.90;;;;;;5040633;28;20452;-84
2022/12/07 01:16:26;;;;;;;541.23;511.67;;;5.00;99.90;;;;;;5040543;28;20459;-83
2022/12/07 01:18:54;;;;;;;563.83;531.67;;;4.90;99.90;;;;;;5040675;28;20453;-81
2022/12/07 01:21:23;;;;;;;560.47;528.87;;;5.00;99.90;;;;;;5040068;28;20487;-82
2022/12/07 01:23:50;;;;;;;569.63;537.00;;;4.90;99.90;;;;;;5041337;28;20460;-82
2022/12/07 01:26:20;;;;;;;553.37;523.03;;;4.90;99.90;;;;;;5041337;28;20456;-83
2022/12/07 01:28:47;;;;;;;566.03;533.87;;;5.00;99.90;;;;;;5039895;28;20456;-83
2022/12/07 01:31:16;;;;;;;563.20;531.30;;;5.00;99.90;;;;;;5040300;28;20859;-83
2022/12/07 01:33:46;;;;;;;576.63;544.20;;;4.90;99.90;;;;;;5039924;28;20460;-82
2022/12/07 01:36:15;;;;;;;575.47;542.57;;;4.90;99.90;;;;;;5040439;28;20457;-82
2022/12/07 01:38:43;;;;;;;584.70;550.87;;;4.90;99.90;;;;;;5040048;28;20850;-82
2022/12/07 01:41:09;;;;;;;582.97;548.77;;;4.90;99.90;;;;;;5039855;28;20491;-82
2022/12/07 01:43:37;;;;;;;590.20;555.67;;;4.80;99.90;;;;;;5041261;28;20456;-82
2022/12/07 01:46:04;;;;;;;590.10;555.00;;;4.80;99.90;;;;;;5040018;28;20452;-82
2022/12/07 01:48:35;;;;;;;597.07;561.03;;;4.90;99.90;;;;;;5040015;28;20453;-83
2022/12/07 01:51:08;;;;;;;568.03;535.93;;;4.80;99.90;;;;;;5039897;28;20476;-82
2022/12/07 01:53:39;;;;;;;576.37;541.87;;;4.80;99.90;;;;;;5040168;28;20452;-81
2022/12/07 01:56:08;;;;;;;584.23;549.07;;;4.90;99.90;;;;;;5040064;28;20941;-82
2022/12/07 01:58:35;;;;;;;576.70;543.30;;;4.90;99.90;;;;;;5040645;28;20461;-82
2022/12/07 02:01:02;;;;;;;557.17;524.07;;;4.90;99.90;;;;;;5039367;28;20495;-82
2022/12/07 02:03:33;;;;;;;551.23;519.13;;;4.80;99.90;;;;;;5039887;28;20451;-83
2022/12/07 02:06:00;;;;;;;567.77;534.77;;;4.90;99.90;;;;;;5040066;28;20611;-82
2022/12/07 02:08:28;;;;;;;574.87;541.40;;;4.80;99.90;;;;;;5040272;28;20453;-82
2022/12/07 02:10:55;;;;;;;561.03;529.27;;;4.80;99.90;;;;;;5039843;28;20831;-83
2022/12/07 02:13:25;;;;;;;579.63;544.67;;;4.80;99.90;;;;;;5039845;28;20459;-82
2022/12/07 02:16:09;;;;;;;581.47;545.87;;;4.90;99.90;;;;;;5040410;28;20451;-82
2022/12/07 02:18:52;;;;;;;592.03;556.80;;;4.80;99.90;;;;;;5039977;28;20475;-82
2022/12/07 02:21:28;;;;;;;591.43;554.37;;;4.90;99.90;;;;;;5039254;28;20472;-83
2022/12/07 02:24:15;;;;;;;572.57;539.23;;;4.80;99.90;;;;;;5040329;28;20456;-83
2022/12/07 02:27:11;;;;;;;576.23;541.83;;;4.80;99.90;;;;;;5040050;28;20452;-82
2022/12/07 02:29:46;;;;;;;588.30;553.47;;;4.70;99.90;;;;;;5039432;28;20451;-82
2022/12/07 02:32:19;;;;;;;591.47;554.90;;;4.70;99.90;;;;;;5039707;28;20981;-83
2022/12/07 02:34:51;;;;;;;581.33;547.23;;;4.60;99.90;;;;;;5039175;28;20471;-83
2022/12/07 02:37:34;;;;;;;584.37;550.43;;;4.80;99.90;;;;;;5040172;28;20452;-83
2022/12/07 02:40:06;;;;;;;590.47;554.97;;;4.70;99.90;;;;;;5033955;28;20463;-82
2022/12/07 02:42:41;;;;;;;585.77;549.97;;;4.70;99.90;;;;;;5039253;28;20484;-83
2022/12/07 02:45:12;;;;;;;590.63;555.67;;;4.70;99.90;;;;;;5037892;28;20463;-82
2022/12/07 02:47:41;;;;;;;593.87;557.73;;;4.70;99.90;;;;;;5038810;28;20456;-82
2022/12/07 02:50:09;;;;;;;589.67;553.73;;;4.80;99.90;;;;;;5039333;28;20451;-82
2022/12/07 02:52:35;;;;;;;575.57;541.87;;;4.80;99.90;;;;;;5039233;28;20495;-82
2022/12/07 02:55:04;;;;;;;568.70;535.47;;;4.70;99.90;;;;;;5038193;28;20735;-82
2022/12/07 02:57:51;;;;;;;577.87;542.97;;;4.70;99.90;;;;;;5039687;28;20513;-83
2022/12/07 03:00:21;;;;;;;571.53;537.23;;;4.70;99.90;;;;;;5039101;28;20453;-83
2022/12/07 03:02:54;;;;;;;580.67;545.47;;;4.70;99.90;;;;;;5039246;28;20480;-82
2022/12/07 03:05:38;;;;;;;594.10;557.37;;;4.70;99.90;;;;;;5039137;28;20459;-84
2022/12/07 03:08:09;;;;;;;596.30;558.60;;;4.70;99.90;;;;;;5038795;28;20456;-82
2022/12/07 03:10:41;;;;;;;610.03;571.97;;;4.70;99.90;;;;;;5038437;28;20452;-82
2022/12/07 03:13:14;;;;;;;610.33;571.37;;;4.60;99.90;;;;;;5039064;28;20455;-83
2022/12/07 03:15:48;;;;;;;608.33;570.77;;;4.80;99.90;;;;;;5038745;28;20969;-82
2022/12/07 03:18:20;;;;;;;601.07;563.80;;;4.70;99.90;;;;;;5039612;28;20451;-82
2022/12/07 03:20:49;;;;;;;609.23;570.57;;;4.80;99.90;;;;;;5038173;28;20468;-83
2022/12/07 03:23:19;;;;;;;589.67;553.37;;;4.70;99.90;;;;;;5039443;28;20871;-83
2022/12/07 03:25:50;;;;;;;602.53;565.57;;;4.70;99.90;;;;;;5038569;28;20448;-82
2022/12/07 03:28:21;;;;;;;603.93;566.77;;;4.70;99.90;;;;;;5038653;28;20487;-83
2022/12/07 03:30:56;;;;;;;617.07;577.37;;;4.70;99.90;;;;;;5037916;28;20858;-82
2022/12/07 03:33:27;;;;;;;603.50;565.50;;;4.80;99.90;;;;;;5038694;28;20476;-83
2022/12/07 03:35:59;;;;;;;623.63;583.27;;;4.60;99.90;;;;;;5038524;28;20910;-82
2022/12/07 03:38:32;;;;;;;622.33;582.47;;;4.70;99.90;;;;;;5039218;28;20455;-82
2022/12/07 03:41:02;;;;;;;620.93;579.93;;;4.60;99.90;;;;;;5038069;28;20476;-82
2022/12/07 03:43:30;;;;;;;633.10;592.73;;;4.60;99.90;;;;;;5038319;28;20483;-83
2022/12/07 03:46:07;;;;;;;629.73;589.47;;;4.60;99.90;;;;;;5039114;28;20453;-82
2022/12/07 03:48:38;;;;;;;648.37;606.90;;;4.70;99.90;;;;;;5038387;28;20455;-83
2022/12/07 03:51:14;;;;;;;639.07;596.03;;;4.60;99.90;;;;;;5018501;28;20473;-83
2022/12/07 03:53:45;;;;;;;636.67;593.77;;;4.60;99.90;;;;;;5019429;28;20449;-83
2022/12/07 03:56:13;;;;;;;654.03;608.97;;;4.50;99.90;;;;;;5038670;28;20448;-83
2022/12/07 03:58:41;;;;;;;670.27;624.00;;;4.50;99.90;;;;;;5041844;28;20457;-83
2022/12/07 04:01:10;;;;;;;668.03;620.87;;;4.60;99.90;;;;;;5042165;28;20476;-83
2022/12/07 04:03:36;;;;;;;661.87;615.43;;;4.50;99.90;;;;;;5042421;28;20476;-82
2022/12/07 04:06:03;;;;;;;685.43;638.30;;;4.50;99.90;;;;;;5041885;28;20456;-82
2022/12/07 04:08:30;;;;;;;681.43;634.00;;;4.60;99.90;;;;;;5042217;28;20448;-83
2022/12/07 04:10:57;;;;;;;681.97;633.50;;;4.60;99.90;;;;;;5041836;28;20472;-82
2022/12/07 04:13:24;;;;;;;669.87;622.27;;;4.60;99.90;;;;;;5043308;28;20444;-83
2022/12/07 04:15:50;;;;;;;677.13;629.50;;;4.50;99.90;;;;;;5042459;28;20452;-83
2022/12/07 04:18:18;;;;;;;656.43;612.17;;;4.40;99.90;;;;;;5042351;28;20459;-83
2022/12/07 04:20:46;;;;;;;661.20;615.77;;;4.50;99.90;;;;;;5041917;28;20475;-83
2022/12/07 04:23:13;;;;;;;673.13;626.60;;;4.40;99.90;;;;;;5042152;28;20487;-83
2022/12/07 04:25:40;;;;;;;683.77;637.00;;;4.20;99.90;;;;;;5040956;28;20449;-83
2022/12/07 04:28:07;;;;;;;693.03;644.20;;;4.20;99.90;;;;;;5042436;28;20455;-82
2022/12/07 04:30:34;;;;;;;694.83;645.33;;;4.20;99.90;;;;;;5040210;28;20467;-83
2022/12/07 04:33:00;;;;;;;703.17;651.60;;;4.20;99.90;;;;;;5022954;28;20469;-82
2022/12/07 04:35:29;;;;;;;704.93;653.07;;;4.20;99.90;;;;;;5022195;28;20465;-83
2022/12/07 04:37:55;;;;;;;708.80;654.20;;;4.20;99.90;;;;;;5021363;28;20950;-84
2022/12/07 04:40:22;;;;;;;694.90;642.03;;;4.10;99.90;;;;;;5021973;28;20453;-82
2022/12/07 04:42:49;;;;;;;691.50;640.73;;;4.20;99.90;;;;;;5024466;28;20520;-82
2022/12/07 04:45:15;;;;;;;710.93;657.87;;;4.20;99.90;;;;;;5042570;28;20463;-83
2022/12/07 04:47:42;;;;;;;702.50;650.37;;;4.30;99.90;;;;;;5042106;28;20828;-83
2022/12/07 04:50:11;;;;;;;697.27;646.17;;;4.20;99.90;;;;;;5042359;28;20456;-82
2022/12/07 04:52:39;;;;;;;688.93;635.83;;;4.30;99.90;;;;;;5028348;28;20492;-83
2022/12/07 04:55:06;;;;;;;693.07;642.70;;;4.30;99.90;;;;;;5022561;28;20457;-82
2022/12/07 04:57:32;;;;;;;691.97;642.00;;;4.30;99.90;;;;;;5022751;28;20457;-83
2022/12/07 04:59:59;;;;;;;685.87;636.10;;;4.40;99.90;;;;;;5021155;28;20992;-82
2022/12/07 05:02:26;;;;;;;681.87;632.80;;;4.40;99.90;;;;;;5021131;28;20492;-82
2022/12/07 05:04:53;;;;;;;673.90;625.20;;;4.40;99.90;;;;;;5020974;28;20548;-83
2022/12/07 05:07:19;;;;;;;676.33;628.60;;;4.30;99.90;;;;;;5021824;28;20461;-83
2022/12/07 05:09:47;;;;;;;675.17;627.87;;;4.40;99.90;;;;;;5021699;28;20464;-83
2022/12/07 05:12:14;;;;;;;646.53;601.83;;;4.30;99.90;;;;;;5038945;28;20985;-81
2022/12/07 05:14:41;;;;;;;657.47;613.17;;;4.20;99.90;;;;;;5041740;28;20448;-83
2022/12/07 05:17:07;;;;;;;672.63;625.13;;;4.30;99.90;;;;;;5041608;28;20456;-83
2022/12/07 05:19:34;;;;;;;658.10;610.83;;;4.30;99.90;;;;;;5040387;28;20452;-82
2022/12/07 05:22:01;;;;;;;636.17;590.77;;;4.20;99.90;;;;;;5040575;28;20479;-82
2022/12/07 05:24:28;;;;;;;631.10;585.73;;;4.30;99.90;;;;;;5037951;28;20444;-82
2022/12/07 05:26:56;;;;;;;637.30;591.47;;;4.30;99.90;;;;;;5042048;28;20448;-84
2022/12/07 05:29:25;;;;;;;639.07;592.87;;;4.20;99.90;;;;;;5040871;28;20448;-88
2022/12/07 05:31:52;;;;;;;630.03;583.83;;;4.30;99.90;;;;;;5041925;28;20464;-83
2022/12/07 05:34:19;;;;;;;638.20;591.43;;;4.20;99.90;;;;;;5041088;28;20448;-83
2022/12/07 05:36:45;;;;;;;631.43;586.27;;;4.20;99.90;;;;;;5037717;28;20444;-83
2022/12/07 05:39:12;;;;;;;652.97;605.80;;;4.10;99.90;;;;;;5035634;28;20474;-83
2022/12/07 05:44:25;;;;;;;642.03;594.57;;;4.10;99.90;;;;;;5035966;28;20439;-83
2022/12/07 05:46:51;;;;;;;655.47;607.37;;;4.10;99.90;;;;;;5036766;28;20448;-83
2022/12/07 05:49:18;;;;;;;648.53;599.87;;;4.00;99.90;;;;;;5036131;28;20448;-82
2022/12/07 05:51:45;;;;;;;646.53;598.60;;;4.10;99.90;;;;;;5035551;28;20464;-83
2022/12/07 05:54:12;;;;;;;651.43;601.97;;;4.00;99.90;;;;;;5035772;28;20965;-83
2022/12/07 05:56:38;;;;;;;643.10;595.60;;;4.00;99.90;;;;;;5035664;28;20448;-83
2022/12/07 05:59:23;;;;;;;648.47;599.27;;;4.00;99.90;;;;;;5036681;28;20454;-83
2022/12/07 06:01:53;;;;;;;639.43;591.13;;;4.10;99.90;;;;;;5039045;28;20468;-82
2022/12/07 06:04:21;;;;;;;632.20;583.33;;;4.10;99.90;;;;;;5040124;28;20897;-82
2022/12/07 06:06:48;;;;;;;647.87;598.50;;;4.10;99.90;;;;;;5035145;28;20506;-82
2022/12/07 06:09:16;;;;;;;638.90;590.60;;;4.10;99.90;;;;;;5028269;28;20528;-82
2022/12/07 06:14:29;;;;;;;625.37;577.97;;;4.20;99.90;;;;;;5032620;28;20456;-81
2022/12/07 06:16:57;;;;;;;628.00;580.30;;;4.20;99.90;;;;;;5029702;28;20449;-82
2022/12/07 06:19:24;;;;;;;636.87;589.87;;;4.20;99.90;;;;;;5028965;28;20536;-82
2022/12/07 06:21:51;;;;;;;616.87;574.27;;;4.20;99.90;;;;;;5030657;28;20480;-82
2022/12/07 06:24:18;;;;;;;626.40;580.33;;;4.40;99.90;;;;;;5028474;28;20477;-82
2022/12/07 06:26:45;;;;;;;633.83;587.77;;;4.20;99.90;;;;;;5030780;28;20456;-81
2022/12/07 06:29:13;;;;;;;618.57;573.57;;;4.30;99.90;;;;;;5029309;28;20477;-82
2022/12/07 06:31:40;;;;;;;617.30;572.30;;;4.40;99.90;;;;;;5028900;28;20567;-82
2022/12/07 06:34:11;;;;;;;610.70;567.67;;;4.40;99.90;;;;;;5029348;28;20466;-81
2022/12/07 06:36:38;;;;;;;607.00;564.50;;;4.40;99.90;;;;;;5026868;28;20448;-82
2022/12/07 06:39:06;;;;;;;611.43;569.27;;;4.40;99.90;;;;;;5036908;28;20449;-82
2022/12/07 06:41:33;;;;;;;611.67;568.17;;;4.40;99.90;;;;;;5038745;28;20528;-83
2022/12/07 06:43:59;;;;;;;619.17;575.80;;;4.40;99.90;;;;;;5039470;28;20476;-82
2022/12/07 06:46:26;;;;;;;665.37;614.03;;;4.30;99.90;;;;;;5038398;28;20456;-82
2022/12/07 06:48:53;;;;;;;664.43;611.93;;;4.30;99.90;;;;;;5039981;28;20471;-82
2022/12/07 06:51:21;;;;;;;654.77;603.43;;;4.30;99.90;;;;;;5040515;28;20487;-82
2022/12/07 06:53:48;;;;;;;668.07;616.00;;;4.20;99.90;;;;;;5038818;28;20467;-82
2022/12/07 06:56:15;;;;;;;672.87;621.37;;;4.20;99.90;;;;;;5038957;28;21012;-82
2022/12/07 06:58:42;;;;;;;677.07;624.50;;;4.10;99.90;;;;;;5040542;28;20459;-81
2022/12/07 07:01:11;;;;;;;676.97;624.17;;;4.20;99.90;;;;;;5038073;28;20468;-79
2022/12/07 07:03:37;;;;;;;678.67;625.10;;;4.10;99.90;;;;;;5038587;28;20909;-81
2022/12/07 07:06:05;;;;;;;685.10;631.27;;;4.10;99.90;;;;;;5038491;28;20449;-81
2022/12/07 07:08:33;;;;;;;685.40;632.50;;;4.10;99.90;;;;;;5037618;28;20455;-82
2022/12/07 07:11:00;;;;;;;679.97;626.40;;;4.10;99.90;;;;;;5035276;28;20468;-82
2022/12/07 07:13:27;;;;;;;682.07;628.90;;;3.90;99.90;;;;;;5038520;28;20449;-81
2022/12/07 07:15:55;;;;;;;674.27;621.00;;;3.90;99.90;;;;;;5038587;28;20826;-81
2022/12/07 07:18:22;;;;;;;681.20;628.10;;;3.80;99.90;;;;;;5037252;28;20448;-81
2022/12/07 07:20:58;;;;;;;684.07;629.87;;;3.80;99.90;;;;;;5038172;28;20478;-81
2022/12/07 07:23:25;;;;;;;680.17;626.77;;;3.90;99.90;;;;;;5038778;28;20502;-81
2022/12/07 07:25:53;;;;;;;687.27;633.47;;;3.80;99.90;;;;;;5033867;28;20455;-81
2022/12/07 07:28:20;;;;;;;690.73;637.53;;;3.60;99.90;;;;;;5038671;28;20452;-81
2022/12/07 07:30:47;;;;;;;685.67;632.50;;;3.60;99.90;;;;;;5037570;28;20479;-81
2022/12/07 07:33:13;;;;;;;685.73;632.33;;;3.50;99.90;;;;;;5043454;28;20456;-82
2022/12/07 07:35:40;;;;;;;690.33;637.57;;;3.50;99.90;;;;;;5041812;28;20448;-81
2022/12/07 07:38:08;;;;;;;691.10;638.27;;;3.50;99.90;;;;;;5041985;28;20452;-81
2022/12/07 07:40:35;;;;;;;692.57;639.33;;;3.30;99.90;;;;;;5041789;28;20448;-81
2022/12/07 07:43:03;;;;;;;684.30;630.90;;;3.40;99.90;;;;;;5041079;28;20494;-81
2022/12/07 07:45:30;;;;;;;685.50;631.83;;;3.50;99.90;;;;;;5041242;28;20452;-81
2022/12/07 07:47:57;;;;;;;681.20;627.63;;;3.70;99.90;;;;;;5040585;28;20459;-81
2022/12/07 07:50:24;;;;;;;669.60;616.83;;;3.80;99.90;;;;;;5042076;28;20454;-81
2022/12/07 07:52:52;;;;;;;678.53;624.50;;;3.90;99.90;;;;;;5049470;28;20944;-80
2022/12/07 07:55:18;;;;;;;689.73;634.93;;;4.00;99.90;;;;;;5048599;28;20452;-82
2022/12/07 07:57:45;;;;;;;674.90;621.80;;;4.10;99.90;;;;;;5049485;28;20448;-81
2022/12/07 08:00:16;;;;;;;690.10;635.80;;;4.10;99.90;;;;;;5046875;28;20447;-84
2022/12/07 08:02:45;;;;;;;679.87;628.37;;;4.10;99.90;;;;;;5048893;28;20474;-81
2022/12/07 08:05:13;;;;;;;692.93;640.17;;;4.20;99.90;;;;;;5030276;28;20495;-81
2022/12/07 08:07:41;;;;;;;689.70;636.80;;;4.30;99.90;;;;;;5046893;28;20516;-81
2022/12/07 08:10:13;;;;;;;689.00;636.97;;;4.30;99.90;;;;;;5047541;28;20452;-81
2022/12/07 08:13:10;;;;;;;689.33;637.10;;;4.30;99.90;;;;;;5048029;28;20479;-81
2022/12/07 08:15:31;;;;;;;694.17;643.10;;;4.30;99.90;;;;;;5039207;28;20444;-82
2022/12/07 08:17:57;;;;;;;681.80;631.20;;;4.30;99.90;;;;;;5050095;28;20476;-81
2022/12/07 08:20:24;;;;;;;685.70;634.83;;;4.30;99.90;;;;;;5048730;28;20967;-81
2022/12/07 08:22:53;;;;;;;683.70;633.57;;;4.40;99.90;;;;;;5048250;28;20516;-82
2022/12/07 08:25:20;;;;;;;677.83;628.60;;;4.40;99.90;;;;;;5047100;28;20470;-81
2022/12/07 08:27:52;;;;;;;685.60;636.43;;;4.40;99.90;;;;;;5047145;28;20456;-82
2022/12/07 08:30:19;;;;;;;672.17;624.67;;;4.30;99.90;;;;;;5046092;28;20444;-80
2022/12/07 08:32:50;;;;;;;677.50;628.87;;;4.30;99.90;;;;;;5053964;28;20480;-81
2022/12/07 08:35:17;;;;;;;676.13;626.77;;;4.30;99.90;;;;;;5046966;28;20510;-82
2022/12/07 08:37:44;;;;;;;681.10;630.35;;;4.30;99.90;;;;;;5046300;28;20458;-81
2022/12/07 08:40:22;;;;;;;667.23;617.80;;;4.50;99.90;;;;;;5047221;28;20212;-81
2022/12/07 08:42:50;;;;;;;662.27;615.00;;;4.60;99.90;;;;;;5048432;28;20825;-82
2022/12/07 08:45:19;;;;;;;655.00;610.50;;;4.80;99.90;;;;;;5048735;28;20547;-82
2022/12/07 08:47:51;;;;;;;640.77;597.83;;;4.90;99.90;;;;;;5049179;28;20487;-82
2022/12/07 08:50:23;;;;;;;635.73;594.87;;;5.00;99.90;;;;;;5049127;28;20476;-81
2022/12/07 08:52:55;;;;;;;631.17;590.67;;;4.90;99.90;;;;;;5049554;28;20491;-82
2022/12/07 08:55:24;;;;;;;610.40;573.27;;;5.00;99.90;;;;;;5049323;28;20462;-82
2022/12/07 08:57:52;;;;;;;601.70;565.90;;;4.90;99.90;;;;;;5049055;28;20457;-82
2022/12/07 09:00:29;;;;;;;574.63;541.00;;;5.10;99.90;;;;;;5048385;28;20444;-80
2022/12/07 09:02:56;;;;;;;561.13;527.93;;;5.20;99.90;;;;;;5048679;28;20489;-83
2022/12/07 09:05:25;;;;;;;537.67;507.63;;;5.10;99.90;;;;;;5048268;28;20457;-82
2022/12/07 09:08:00;;;;;;;520.90;492.10;;;5.00;99.90;;;;;;5047226;28;20520;-82
2022/12/07 09:10:27;;;;;;;509.30;481.50;;;5.10;99.90;;;;;;5047719;28;20448;-82
2022/12/07 09:13:00;;;;;;;472.27;447.83;;;5.20;99.90;;;;;;5047282;28;20532;-82
2022/12/07 09:15:29;;;;;;;470.57;446.33;;;5.20;99.90;;;;;;5048492;28;21006;-82
2022/12/07 09:18:04;;;;;;;452.77;429.77;;;5.10;99.90;;;;;;5048429;28;20973;-82
2022/12/07 09:20:36;;;;;;;475.03;451.90;;;5.00;99.90;;;;;;5047487;28;21022;-82
2022/12/07 09:23:06;;;;;;;466.00;442.57;;;5.00;99.90;;;;;;5047645;28;20441;-82
2022/12/07 09:25:33;;;;;;;446.20;423.20;;;5.10;99.90;;;;;;5046325;28;20459;-82
2022/12/07 09:30:48;;;;;;;381.13;362.90;;;5.30;99.90;;;;;;5047214;28;20494;-82
2022/12/07 09:33:22;;;;;;;319.27;304.07;;;5.60;99.90;;;;;;5046928;28;20952;-83
2022/12/07 09:35:52;;;;;;;296.13;282.13;;;5.50;99.90;;;;;;5046973;28;20455;-83
2022/12/07 09:38:20;;;;;;;342.73;327.10;;;5.40;99.90;;;;;;5047301;28;20448;-83
2022/12/07 09:40:56;;;;;;;330.40;314.37;;;5.70;99.90;;;;;;5047243;28;20487;-82
2022/12/07 09:43:35;;;;;;;317.50;302.20;;;5.80;99.90;;;;;;5046857;28;20498;-82
2022/12/07 09:46:02;;;;;;;228.20;217.77;;;5.70;99.90;;;;;;5046084;28;20456;-83
2022/12/07 09:48:32;;;;;;;249.37;237.93;;;5.70;99.90;;;;;;5046581;28;20514;-83
2022/12/07 09:51:03;;;;;;;282.60;270.20;;;5.70;99.90;;;;;;5045636;28;20527;-82
2022/12/07 09:53:34;;;;;;;272.23;260.73;;;5.60;99.90;;;;;;5045431;28;20452;-83
2022/12/07 09:56:02;;;;;;;250.10;239.87;;;5.60;99.90;;;;;;5045265;28;20491;-82
2022/12/07 09:58:36;;;;;;;242.23;231.97;;;5.60;99.90;;;;;;5047028;28;20475;-83
2022/12/07 10:01:13;;;;;;;233.87;224.07;;;5.60;99.90;;;;;;5045270;28;20992;-83
2022/12/07 10:03:49;;;;;;;228.63;219.27;;;5.50;99.90;;;;;;5046890;28;20476;-83
2022/12/07 10:06:32;;;;;;;228.13;218.57;;;5.60;99.90;;;;;;5047350;28;20463;-83
2022/12/07 10:09:07;;;;;;;207.70;197.90;;;5.60;99.90;;;;;;5045753;28;20441;-83
2022/12/07 10:11:56;;;;;;;183.43;175.23;;;5.70;99.90;;;;;;5045325;28;20502;-83
2022/12/07 10:14:23;;;;;;;200.77;191.73;;;5.70;99.90;;;;;;5045163;28;20451;-82
2022/12/07 10:16:52;;;;;;;217.53;208.33;;;5.80;99.90;;;;;;5046368;28;20823;-82
2022/12/07 10:19:25;;;;;;;171.10;163.07;;;6.00;99.90;;;;;;5044743;28;20495;-83
2022/12/07 10:22:09;;;;;;;158.27;150.57;;;6.40;99.90;;;;;;5045051;28;20548;-83
2022/12/07 10:24:39;;;;;;;105.73;100.47;;;6.60;99.90;;;;;;5044302;28;20480;-83
2022/12/07 10:27:20;;;;;;;91.00;86.27;;;6.70;99.90;;;;;;5043848;28;20480;-83
2022/12/07 10:29:52;;;;;;;60.33;56.07;;;6.60;99.90;;;;;;5044998;28;20480;-83
2022/12/07 10:32:33;;;;;;;72.57;68.30;;;6.60;99.90;;;;;;5045532;28;20479;-83
2022/12/07 10:35:21;;;;;;;71.27;66.97;;;6.50;99.90;;;;;;5044582;28;20448;-83
2022/12/07 10:38:01;;;;;;;40.20;37.37;;;6.50;99.90;;;;;;5045537;28;20486;-83
2022/12/07 10:40:32;;;;;;;53.73;50.13;;;6.40;99.90;;;;;;5046157;28;20471;-82
2022/12/07 10:43:05;;;;;;;48.37;45.33;;;6.40;99.90;;;;;;5046120;28;20460;-83
2022/12/07 10:46:11;;;;;;;91.57;86.37;;;6.50;99.90;;;;;;5046166;28;20480;-83
2022/12/07 10:48:54;;;;;;;77.40;72.73;;;6.50;99.90;;;;;;5046089;28;20476;-83
2022/12/07 10:51:27;;;;;;;45.03;41.93;;;6.60;99.90;;;;;;5043955;28;20480;-82
2022/12/07 10:54:06;;;;;;;48.63;44.23;;;6.60;99.90;;;;;;5045537;28;20608;-83
2022/12/07 10:56:55;;;;;;;57.13;53.23;;;6.60;99.90;;;;;;5045636;28;20449;-83
2022/12/07 10:59:53;;;;;;;46.60;41.83;;;6.50;99.90;;;;;;5044215;28;20456;-83
2022/12/07 11:02:28;;;;;;;50.43;46.93;;;6.50;99.90;;;;;;5019917;28;20480;-82
2022/12/07 11:05:12;;;;;;;59.10;55.57;;;6.70;99.90;;;;;;5045180;28;20894;-82
2022/12/07 11:07:48;;;;;;;41.20;37.63;;;6.60;99.90;;;;;;5044399;28;20460;-82
2022/12/07 11:10:21;;;;;;;29.70;25.20;;;6.60;99.90;;;;;;5045555;28;20817;-82
2022/12/07 11:13:15;;;;;;;33.37;23.40;;;6.40;99.90;;;;;;5045622;28;20933;-83
2022/12/07 11:15:56;;;;;;;30.73;24.23;;;6.20;99.90;;;;;;5045634;28;20449;-83
2022/12/07 11:18:28;;;;;;;37.47;34.10;;;6.10;99.90;;;;;;5045219;28;20460;-83
2022/12/07 11:21:07;;;;;;;57.77;53.93;;;5.80;99.90;;;;;;5045738;28;20470;-82
2022/12/07 11:23:47;;;;;;;70.13;65.87;;;5.90;99.90;;;;;;5045302;28;20462;-82
2022/12/07 11:26:27;;;;;;;65.63;61.77;;;6.10;99.90;;;;;;5042672;28;20563;-84
2022/12/07 11:29:12;;;;;;;48.90;45.33;;;6.10;99.90;;;;;;5039292;28;21007;-82
2022/12/07 11:31:53;;;;;;;63.53;58.80;;;6.20;99.90;;;;;;5042800;28;20476;-83
2022/12/07 11:34:31;;;;;;;47.03;43.07;;;6.40;99.90;;;;;;5027199;28;20452;-85
2022/12/07 11:36:59;;;;;;;48.20;44.20;;;6.50;99.90;;;;;;5040474;28;20451;-83
2022/12/07 11:39:32;;;;;;;49.10;45.53;;;6.70;99.90;;;;;;5041651;28;20491;-85
2022/12/07 11:42:07;;;;;;;29.83;26.73;;;6.80;99.90;;;;;;5035333;28;20491;-83
2022/12/07 11:44:42;;;;;;;50.70;46.23;;;6.90;99.90;;;;;;5040690;28;20467;-81
2022/12/07 11:47:12;;;;;;;38.00;30.47;;;6.90;99.90;;;;;;5041309;28;20448;-81
2022/12/07 11:49:44;;;;;;;32.93;29.43;;;6.90;99.90;;;;;;5040683;28;20452;-82
2022/12/07 11:52:23;;;;;;;24.07;15.57;;;6.90;99.90;;;;;;5040241;28;20476;-82
2022/12/07 11:54:52;;;;;;;24.30;12.83;;;6.80;99.90;;;;;;5007855;28;23554;-82
2022/12/07 11:57:26;;;;;;;25.50;14.00;;;7.10;99.90;;;;;;5020067;28;20965;-82
2022/12/07 12:00:00;;;;;;;21.60;13.73;;;7.30;99.90;;;;;;5020698;28;20464;-82
2022/12/07 12:02:32;;;;;;;27.07;13.70;;;7.50;99.90;;;;;;5023325;28;20469;-82
2022/12/07 12:05:06;;;;;;;28.13;13.40;;;7.60;99.90;;;;;;5021653;28;20480;-82
2022/12/07 12:07:34;;;;;;;24.83;13.23;;;7.50;99.90;;;;;;5012941;28;20457;-82
2022/12/07 12:10:06;;;;;;;17.10;10.83;;;7.70;99.90;;;;;;5011607;28;20458;-82
2022/12/07 12:12:55;;;;;;;24.17;12.70;;;7.70;99.90;;;;;;5017866;28;20492;-82
2022/12/07 12:15:34;;;;;;;18.23;11.40;;;7.70;99.90;;;;;;5023006;28;20453;-82
2022/12/07 12:18:27;;;;;;;19.67;9.77;;;7.90;99.90;;;;;;5022696;28;20459;-82
2022/12/07 12:20:59;;;;;;;16.37;8.87;;;7.80;99.90;;;;;;5023011;28;20481;-83
2022/12/07 12:23:34;;;;;;;18.37;10.27;;;7.50;99.90;;;;;;5023615;28;20447;-82
2022/12/07 12:26:04;;;;;;;19.20;9.67;;;7.20;99.90;;;;;;5022980;28;20473;-80
2022/12/07 12:28:39;;;;;;;22.60;9.00;;;7.10;99.90;;;;;;5024636;28;20452;-81
2022/12/07 12:31:09;;;;;;;16.83;8.20;;;7.10;99.90;;;;;;5024150;28;20479;-81
2022/12/07 12:33:45;;;;;;;19.10;9.27;;;7.00;99.90;;;;;;5026198;28;20536;-81
2022/12/07 12:36:23;;;;;;;13.20;7.73;;;6.90;99.90;;;;;;5028541;28;20454;-81
2022/12/07 12:38:53;;;;;;;16.77;9.63;;;6.70;99.90;;;;;;5028662;28;20453;-82
2022/12/07 12:42:09;;;;;;;17.30;10.00;;;6.70;99.90;;;;;;5027927;28;20472;-82
2022/12/07 12:45:06;;;;;;;17.23;10.90;;;6.80;99.90;;;;;;5022427;28;20503;-82
2022/12/07 12:47:54;;;;;;;20.80;9.93;;;6.90;99.90;;;;;;5028636;28;20533;-82